パラオ の空港の天気 - METARとTAF

パラオ国際空港 ( PTRO / ROR ) - パラオ アイライ州
飛行場実況気象(Metar)
観測時間02/18 07:50 PWT (02/17 22:50 UTC)
風向・風速北東 5m/s 瞬間風速8m/s
視程10km以上
天気現象
全天の8割程度の雲 雲底高度 490m
全天の8割程度の雲 雲底高度 3660m
全天を覆う雲 雲底高度 9140m
気温27℃
湿度79%
気圧1014hPa
METARPTRO 172250Z 05010G16KT 14SM BKN016CB BKN120 OVC300 27/23 A2994 RMK CB ALQDS
過去の天気等 Google飛行場航空写真 Wunderground天気予報

過去48時間のMETAR

飛行場予報(TAF)
発表時間: 2/18 02:28 PWT (2/17 17:28 UTC)
予報対象時間: 18日3時 PWT ~ 19日3時 PWT
風向・風速北東 5m/s
視程10km以上
全天の4割程度の雲 雲底高度 460m
全天の4割程度の雲 雲底高度 1520m
18日8時 PWT から
風向・風速北東 8m/s
視程10km以上
天気現象周辺でしゅう雨
全天の4割程度の雲 雲底高度 460m
全天の4割程度の雲 雲底高度 1520m
PTRO 171728Z 1718/1818 04009KT P6SM SCT015 SCT050
FM172300 05015KT P6SM VCSH SCT015 SCT050